createdAt,value
2019-06-08T00:00:13.191Z,18.61
2019-06-08T00:02:42.787Z,18.67
2019-06-08T00:05:12.588Z,18.65
2019-06-08T00:07:41.509Z,18.62
2019-06-08T00:10:10.593Z,18.56
2019-06-08T00:12:39.430Z,18.56
2019-06-08T00:15:08.857Z,18.63
2019-06-08T00:17:39.241Z,18.66
2019-06-08T00:20:08.654Z,18.56
2019-06-08T00:22:37.371Z,18.44
2019-06-08T00:25:06.350Z,18.38
2019-06-08T00:27:35.078Z,18.34
2019-06-08T00:30:05.511Z,18.30
2019-06-08T00:32:34.402Z,18.22
2019-06-08T00:35:03.124Z,18.17
2019-06-08T00:37:31.834Z,18.10
2019-06-08T00:40:00.690Z,18.06
2019-06-08T00:42:29.410Z,18.03
2019-06-08T00:44:58.150Z,17.99
2019-06-08T00:47:44.966Z,17.96
2019-06-08T00:49:57.483Z,18.02
2019-06-08T00:52:26.214Z,18.10
2019-06-08T00:54:54.963Z,18.17
2019-06-08T00:57:23.863Z,18.23
2019-06-08T00:59:52.579Z,18.28
2019-06-08T01:02:22.570Z,18.27
2019-06-08T01:04:51.347Z,18.22
2019-06-08T01:07:20.074Z,18.31
2019-06-08T01:09:49.045Z,18.22
2019-06-08T01:12:18.647Z,18.14
2019-06-08T01:14:47.628Z,18.07
2019-06-08T01:17:16.418Z,18.00
2019-06-08T01:19:45.154Z,18.01
2019-06-08T01:22:13.878Z,17.91
2019-06-08T01:24:43.038Z,17.83
2019-06-08T01:27:11.760Z,17.74
2019-06-08T01:29:40.479Z,17.69
2019-06-08T01:32:09.277Z,17.70
2019-06-08T01:34:38.008Z,17.67
2019-06-08T01:37:06.729Z,17.61
2019-06-08T01:39:35.709Z,17.54
2019-06-08T01:42:04.432Z,17.55
2019-06-08T01:44:33.155Z,17.61
2019-06-08T01:47:01.965Z,17.58
2019-06-08T01:49:30.730Z,17.52
2019-06-08T01:51:59.416Z,17.48
2019-06-08T01:54:29.735Z,17.44
2019-06-08T01:56:58.646Z,17.44
2019-06-08T01:59:27.454Z,17.40
2019-06-08T02:01:56.484Z,17.34
2019-06-08T02:04:26.018Z,17.31
2019-06-08T02:06:54.914Z,17.30
2019-06-08T02:09:24.541Z,17.33
2019-06-08T02:11:53.299Z,17.30
2019-06-08T02:14:22.028Z,17.33
2019-06-08T02:16:50.963Z,17.32
2019-06-08T02:19:19.697Z,17.32
2019-06-08T02:21:48.419Z,17.26
2019-06-08T02:24:17.293Z,17.20
2019-06-08T02:26:46.024Z,17.16
2019-06-08T02:29:14.753Z,16.99
2019-06-08T02:31:47.690Z,16.94
2019-06-08T02:34:14.115Z,17.03
2019-06-08T02:36:42.843Z,17.14
2019-06-08T02:39:11.723Z,17.09
2019-06-08T02:41:40.439Z,17.09
2019-06-08T02:44:09.275Z,17.07
2019-06-08T02:46:40.130Z,17.07
2019-06-08T02:49:08.516Z,17.06
2019-06-08T02:51:38.085Z,17.07
2019-06-08T02:54:07.069Z,17.04
2019-06-08T02:56:36.823Z,17.03
2019-06-08T02:59:06.443Z,17.01
2019-06-08T03:01:38.276Z,17.06
2019-06-08T03:04:06.958Z,16.98
2019-06-08T03:06:39.392Z,16.95
2019-06-08T03:09:08.961Z,16.92
2019-06-08T03:11:39.162Z,16.89
2019-06-08T03:14:08.144Z,16.87
2019-06-08T03:16:39.035Z,16.85
2019-06-08T03:19:20.959Z,16.87
2019-06-08T03:21:38.826Z,16.87
2019-06-08T03:24:08.365Z,16.90
2019-06-08T03:26:40.862Z,16.89
2019-06-08T03:29:07.543Z,16.92
2019-06-08T03:31:44.002Z,16.88
2019-06-08T03:34:07.023Z,16.89
2019-06-08T03:36:40.346Z,16.90
2019-06-08T03:39:07.855Z,16.96
2019-06-08T03:41:38.318Z,16.97
2019-06-08T03:44:07.130Z,17.03
2019-06-08T03:46:36.457Z,17.12
2019-06-08T03:49:05.228Z,17.19
2019-06-08T03:51:36.062Z,17.25
2019-06-08T03:54:04.659Z,17.38
2019-06-08T03:56:33.388Z,17.48
2019-06-08T03:59:02.128Z,17.51
2019-06-08T04:01:30.880Z,17.58
2019-06-08T04:04:00.210Z,17.70
2019-06-08T04:06:29.011Z,17.78
2019-06-08T04:08:57.881Z,17.86
2019-06-08T04:11:26.598Z,17.90
2019-06-08T04:13:55.629Z,18.05
2019-06-08T04:16:24.394Z,18.05
2019-06-08T04:18:53.131Z,18.13
2019-06-08T04:21:21.884Z,18.13
2019-06-08T04:23:50.886Z,18.14
2019-06-08T04:26:19.678Z,18.26
2019-06-08T04:28:49.672Z,18.27
2019-06-08T04:31:18.735Z,18.36
2019-06-08T04:33:47.468Z,18.43
2019-06-08T04:36:16.195Z,18.60
2019-06-08T04:38:45.858Z,18.54
2019-06-08T04:41:15.523Z,18.57
2019-06-08T04:43:45.068Z,18.68
2019-06-08T04:46:14.739Z,18.76
2019-06-08T04:48:45.139Z,18.83
2019-06-08T04:51:13.923Z,18.91
2019-06-08T04:53:43.659Z,19.19
2019-06-08T04:56:13.252Z,19.57
2019-06-08T04:58:43.972Z,19.99
2019-06-08T05:01:12.461Z,20.42
2019-06-08T05:03:41.690Z,21.18
2019-06-08T05:06:11.631Z,21.53
2019-06-08T05:08:40.975Z,21.82
2019-06-08T05:11:09.789Z,22.05
2019-06-08T05:13:39.167Z,22.38
2019-06-08T05:16:08.142Z,22.71
2019-06-08T05:18:36.874Z,22.79
2019-06-08T05:21:05.645Z,23.03
2019-06-08T05:23:34.437Z,22.85
2019-06-08T05:26:03.155Z,22.65
2019-06-08T05:28:31.904Z,22.54
2019-06-08T05:31:00.789Z,22.37
2019-06-08T05:33:29.505Z,22.28
2019-06-08T05:35:58.229Z,22.27
2019-06-08T05:38:27.016Z,22.27
2019-06-08T05:40:55.738Z,22.16
2019-06-08T05:43:24.455Z,22.17
2019-06-08T05:45:53.299Z,22.34
2019-06-08T05:48:22.030Z,22.33
2019-06-08T05:51:03.118Z,22.28
2019-06-08T05:53:22.212Z,22.28
2019-06-08T05:55:50.933Z,22.45
2019-06-08T05:58:19.701Z,22.61
2019-06-08T06:00:48.604Z,22.89
2019-06-08T06:03:17.336Z,22.92
2019-06-08T06:05:46.544Z,23.03
2019-06-08T06:08:19.039Z,23.13
2019-06-08T06:10:46.903Z,23.38
2019-06-08T06:13:15.723Z,23.46
2019-06-08T06:15:45.090Z,23.71
2019-06-08T06:18:13.813Z,24.10
2019-06-08T06:20:43.332Z,24.44
2019-06-08T06:23:12.247Z,24.51
2019-06-08T06:25:41.386Z,24.69
2019-06-08T06:28:10.333Z,24.82
2019-06-08T06:30:39.180Z,25.79
2019-06-08T06:33:07.912Z,25.79
2019-06-08T06:35:38.657Z,26.11
2019-06-08T06:38:07.525Z,26.61
2019-06-08T06:40:36.236Z,26.90
2019-06-08T06:43:04.986Z,27.14
2019-06-08T06:45:33.752Z,27.51
2019-06-08T06:48:02.519Z,28.08
2019-06-08T06:50:31.263Z,28.40
2019-06-08T06:53:00.043Z,28.29
2019-06-08T06:55:28.764Z,28.15
2019-06-08T06:57:57.499Z,28.36
2019-06-08T07:00:31.571Z,28.54
2019-06-08T07:03:01.407Z,28.58
2019-06-08T07:05:30.140Z,29.09
2019-06-08T07:07:59.009Z,29.39
2019-06-08T07:10:27.730Z,29.93
2019-06-08T07:12:56.468Z,29.95
2019-06-08T07:15:29.414Z,30.25
2019-06-08T07:17:58.564Z,30.02
2019-06-08T07:20:27.623Z,29.84
2019-06-08T07:22:56.378Z,29.83
2019-06-08T07:25:25.107Z,30.25
2019-06-08T07:27:55.234Z,30.72
2019-06-08T07:30:24.267Z,30.72
2019-06-08T07:32:53.101Z,30.72
2019-06-08T07:35:21.854Z,30.44
2019-06-08T07:37:51.980Z,30.40
2019-06-08T07:40:21.176Z,30.73
2019-06-08T07:42:51.452Z,31.27
2019-06-08T07:45:20.632Z,31.53
2019-06-08T07:47:49.958Z,31.21
2019-06-08T07:50:18.749Z,31.04
2019-06-08T07:52:47.979Z,31.08
2019-06-08T07:55:19.369Z,31.12
2019-06-08T07:57:49.225Z,31.21
2019-06-08T08:00:18.973Z,31.24
2019-06-08T08:02:48.138Z,31.31
2019-06-08T08:05:16.985Z,31.04
2019-06-08T08:07:45.950Z,30.96
2019-06-08T08:10:16.539Z,31.35
2019-06-08T08:12:45.294Z,31.62
2019-06-08T08:15:15.081Z,31.51
2019-06-08T08:17:43.813Z,31.32
2019-06-08T08:20:13.126Z,31.98
2019-06-08T08:22:41.926Z,32.53
2019-06-08T08:25:11.539Z,32.33
2019-06-08T08:27:40.265Z,32.21
2019-06-08T08:30:11.013Z,32.43
2019-06-08T08:32:39.729Z,32.42
2019-06-08T08:35:09.066Z,32.57
2019-06-08T08:37:38.316Z,32.69
2019-06-08T08:40:08.108Z,32.49
2019-06-08T08:42:38.718Z,32.56
2019-06-08T08:45:09.128Z,32.77
2019-06-08T08:47:38.674Z,32.60
2019-06-08T08:50:10.353Z,32.37
2019-06-08T08:52:40.898Z,32.33
2019-06-08T08:55:10.023Z,32.88
2019-06-08T08:57:41.559Z,33.13
2019-06-08T09:00:10.269Z,32.92
2019-06-08T09:02:39.010Z,32.75
2019-06-08T09:05:08.565Z,32.54
2019-06-08T09:07:38.505Z,32.52
2019-06-08T09:10:10.762Z,32.76
2019-06-08T09:12:38.375Z,32.92
2019-06-08T09:15:10.203Z,33.29
2019-06-08T09:17:39.084Z,32.89
2019-06-08T09:20:13.042Z,33.35
2019-06-08T09:22:52.362Z,33.69
2019-06-08T09:25:12.762Z,33.52
2019-06-08T09:27:40.214Z,33.45
2019-06-08T09:30:09.374Z,33.08
2019-06-08T09:32:38.390Z,33.35
2019-06-08T09:35:09.412Z,33.39
2019-06-08T09:37:37.934Z,33.52
2019-06-08T09:40:07.773Z,33.65
2019-06-08T09:42:36.529Z,33.62
2019-06-08T09:45:09.163Z,33.89
2019-06-08T09:47:38.199Z,33.82
2019-06-08T09:50:09.247Z,34.18
2019-06-08T09:52:40.969Z,34.29
2019-06-08T09:55:09.408Z,34.62
2019-06-08T09:57:38.790Z,34.55
2019-06-08T10:00:18.013Z,34.57
2019-06-08T10:02:40.073Z,34.33
2019-06-08T10:05:09.278Z,33.94
2019-06-08T10:07:38.972Z,33.84
2019-06-08T10:10:14.837Z,34.08
2019-06-08T10:12:43.715Z,34.40
2019-06-08T10:15:12.847Z,34.50
2019-06-08T10:17:41.562Z,34.40
2019-06-08T10:20:10.822Z,34.59
2019-06-08T10:22:39.549Z,34.83
2019-06-08T10:25:11.069Z,34.45
2019-06-08T10:27:39.241Z,34.32
2019-06-08T10:30:10.222Z,34.15
2019-06-08T10:32:39.416Z,34.45
2019-06-08T10:35:10.529Z,34.75
2019-06-08T10:37:39.509Z,34.86
2019-06-08T10:40:10.489Z,35.27
2019-06-08T10:42:40.197Z,35.35
2019-06-08T10:45:13.111Z,35.13
2019-06-08T10:47:40.329Z,35.17
2019-06-08T10:50:15.165Z,34.93
2019-06-08T10:52:41.629Z,35.00
2019-06-08T10:55:12.232Z,35.20
2019-06-08T10:57:41.280Z,35.49
2019-06-08T11:00:22.740Z,35.60
2019-06-08T11:02:48.709Z,35.34
2019-06-08T11:05:18.161Z,35.29
2019-06-08T11:07:48.021Z,35.10
2019-06-08T11:10:19.079Z,35.41
2019-06-08T11:12:48.550Z,35.16
2019-06-08T11:15:17.906Z,35.03
2019-06-08T11:17:46.629Z,35.32
2019-06-08T11:20:15.341Z,35.80
2019-06-08T11:22:44.245Z,35.60
2019-06-08T11:25:16.050Z,35.36
2019-06-08T11:27:43.382Z,34.85
2019-06-08T11:30:20.427Z,34.78
2019-06-08T11:32:42.724Z,35.04
2019-06-08T11:35:12.667Z,35.27
2019-06-08T11:37:41.582Z,35.07
2019-06-08T11:40:12.841Z,34.37
2019-06-08T11:42:41.913Z,34.14
2019-06-08T11:45:13.026Z,34.20
2019-06-08T11:47:41.682Z,34.52
2019-06-08T11:50:13.280Z,34.64
2019-06-08T11:52:41.310Z,34.95
2019-06-08T11:55:12.743Z,35.44
2019-06-08T11:57:40.674Z,35.72
2019-06-08T12:00:24.163Z,35.98
2019-06-08T12:02:41.524Z,36.29
2019-06-08T12:05:12.417Z,36.43
2019-06-08T12:07:41.007Z,35.97
2019-06-08T12:10:12.506Z,35.39
2019-06-08T12:12:40.766Z,35.52
2019-06-08T12:15:11.970Z,35.67
2019-06-08T12:17:40.467Z,36.12
2019-06-08T12:20:14.042Z,36.36
2019-06-08T12:22:40.234Z,36.58
2019-06-08T12:25:10.327Z,36.32
2019-06-08T12:27:40.118Z,36.19
2019-06-08T12:30:17.412Z,35.90
2019-06-08T12:32:39.861Z,35.91
2019-06-08T12:35:10.670Z,35.63
2019-06-08T12:37:40.309Z,36.08
2019-06-08T12:40:11.526Z,36.09
2019-06-08T12:42:39.570Z,36.60
2019-06-08T12:45:09.346Z,36.87
2019-06-08T12:47:38.359Z,37.14
2019-06-08T12:50:09.049Z,37.51
2019-06-08T12:52:39.138Z,37.41
2019-06-08T12:55:14.329Z,37.67
2019-06-08T12:57:39.347Z,38.14
2019-06-08T13:00:10.278Z,38.01
2019-06-08T13:02:41.409Z,37.72
2019-06-08T13:05:13.297Z,37.94
2019-06-08T13:07:40.605Z,37.85
2019-06-08T13:10:09.419Z,37.29
2019-06-08T13:12:40.655Z,36.69
2019-06-08T13:15:10.074Z,36.83
2019-06-08T13:17:39.384Z,37.19
2019-06-08T13:20:22.170Z,37.66
2019-06-08T13:22:49.437Z,37.72
2019-06-08T13:25:31.106Z,37.87
2019-06-08T13:27:48.760Z,37.71
2019-06-08T13:30:22.848Z,38.03
2019-06-08T13:32:48.446Z,38.18
2019-06-08T13:35:20.735Z,38.01
2019-06-08T13:37:47.876Z,38.03
2019-06-08T13:40:21.779Z,37.80
2019-06-08T13:42:51.284Z,37.85
2019-06-08T13:45:21.806Z,38.24
2019-06-08T13:47:50.554Z,38.08
2019-06-08T13:50:22.223Z,38.01
2019-06-08T13:52:50.954Z,38.09
2019-06-08T13:55:36.673Z,37.74
2019-06-08T13:57:50.443Z,37.77
2019-06-08T14:00:23.358Z,38.30
2019-06-08T14:02:52.518Z,38.44
2019-06-08T14:05:30.775Z,38.01
2019-06-08T14:08:00.671Z,38.37
2019-06-08T14:10:40.636Z,38.04
2019-06-08T14:13:10.164Z,38.10
2019-06-08T14:15:38.875Z,38.46
2019-06-08T14:18:08.759Z,38.72
2019-06-08T14:20:38.656Z,38.84
2019-06-08T14:23:09.181Z,39.01
2019-06-08T14:25:47.915Z,39.03
2019-06-08T14:28:08.663Z,38.56
2019-06-08T14:30:37.903Z,38.46
2019-06-08T14:33:08.399Z,38.56
2019-06-08T14:35:37.314Z,38.79
2019-06-08T14:38:06.033Z,38.68
2019-06-08T14:40:37.425Z,38.68
2019-06-08T14:43:05.548Z,38.70
2019-06-08T14:45:34.261Z,38.55
2019-06-08T14:48:04.292Z,37.29
2019-06-08T14:50:33.011Z,36.21
2019-06-08T14:53:01.731Z,35.61
2019-06-08T14:55:34.144Z,35.56
2019-06-08T14:58:01.009Z,35.41
2019-06-08T15:00:29.812Z,35.52
2019-06-08T15:02:59.267Z,36.15
2019-06-08T15:05:30.706Z,36.49
2019-06-08T15:08:00.896Z,36.15
2019-06-08T15:10:31.004Z,35.92
2019-06-08T15:12:59.696Z,36.34
2019-06-08T15:15:30.725Z,36.66
2019-06-08T15:17:59.015Z,37.22
2019-06-08T15:20:28.598Z,37.35
2019-06-08T15:22:58.050Z,37.40
2019-06-08T15:25:29.485Z,37.30
2019-06-08T15:27:58.247Z,36.87
2019-06-08T15:30:29.773Z,36.72
2019-06-08T15:32:58.904Z,36.59
2019-06-08T15:35:27.704Z,36.47
2019-06-08T15:37:58.452Z,36.30
2019-06-08T15:40:27.798Z,36.28
2019-06-08T15:42:58.502Z,35.91
2019-06-08T15:45:30.980Z,35.90
2019-06-08T15:47:58.686Z,35.97
2019-06-08T15:50:28.468Z,35.91
2019-06-08T15:52:59.765Z,35.83
2019-06-08T15:55:31.231Z,35.80
2019-06-08T15:57:58.691Z,35.79
2019-06-08T16:00:29.371Z,35.45
2019-06-08T16:02:58.972Z,35.08
2019-06-08T16:05:27.958Z,34.63
2019-06-08T16:07:56.677Z,34.47
2019-06-08T16:10:26.338Z,34.46
2019-06-08T16:12:55.156Z,34.28
2019-06-08T16:15:24.879Z,34.19
2019-06-08T16:17:53.818Z,34.00
2019-06-08T16:20:22.560Z,33.86
2019-06-08T16:22:51.279Z,33.69
2019-06-08T16:25:20.031Z,33.49
2019-06-08T16:27:48.753Z,33.36
2019-06-08T16:30:17.776Z,33.14
2019-06-08T16:32:46.714Z,32.96
2019-06-08T16:35:15.528Z,32.89
2019-06-08T16:37:44.241Z,32.81
2019-06-08T16:40:13.418Z,32.71
2019-06-08T16:42:42.131Z,32.39
2019-06-08T16:45:11.556Z,32.16
2019-06-08T16:47:43.187Z,31.90
2019-06-08T16:50:23.452Z,31.68
2019-06-08T16:52:42.109Z,31.51
2019-06-08T16:55:11.355Z,31.35
2019-06-08T16:57:41.288Z,31.18
2019-06-08T17:02:40.785Z,30.74
2019-06-08T17:05:09.699Z,30.47
2019-06-08T17:07:39.646Z,30.19
2019-06-08T17:10:08.967Z,30.01
2019-06-08T17:12:39.012Z,29.90
2019-06-08T17:15:08.191Z,29.79
2019-06-08T17:17:38.496Z,29.64
2019-06-08T17:20:08.167Z,29.60
2019-06-08T17:22:36.997Z,29.53
2019-06-08T17:25:10.360Z,29.47
2019-06-08T17:27:39.091Z,29.44
2019-06-08T17:30:08.989Z,29.35
2019-06-08T17:32:38.437Z,29.28
2019-06-08T17:35:08.021Z,29.14
2019-06-08T17:37:38.003Z,28.91
2019-06-08T17:40:07.381Z,28.69
2019-06-08T17:42:37.477Z,28.54
2019-06-08T17:45:09.786Z,28.41
2019-06-08T17:47:38.763Z,28.28
2019-06-08T17:50:07.597Z,28.10
2019-06-08T17:52:37.059Z,27.90
2019-06-08T17:55:07.100Z,27.79
2019-06-08T17:57:47.160Z,27.66
2019-06-08T18:00:09.834Z,27.54
2019-06-08T18:02:41.937Z,27.36
2019-06-08T18:05:10.772Z,27.21
2019-06-08T18:07:41.991Z,27.12
2019-06-08T18:10:10.581Z,26.96
2019-06-08T18:12:42.869Z,26.96
2019-06-08T18:15:10.148Z,26.81
2019-06-08T18:17:42.129Z,26.71
2019-06-08T18:20:12.981Z,26.69
2019-06-08T18:22:44.451Z,26.60
2019-06-08T18:25:14.405Z,26.49
2019-06-08T18:28:00.735Z,26.30
2019-06-08T18:30:18.997Z,26.24
2019-06-08T18:32:48.550Z,26.23
2019-06-08T18:35:18.204Z,26.22
2019-06-08T18:37:48.649Z,26.17
2019-06-08T18:40:18.180Z,26.12
2019-06-08T18:42:48.814Z,25.99
2019-06-08T18:45:18.772Z,25.87
2019-06-08T18:47:48.416Z,25.81
2019-06-08T18:50:17.635Z,25.77
2019-06-08T18:52:49.497Z,25.76
2019-06-08T18:55:18.272Z,25.69
2019-06-08T18:57:48.945Z,25.64
2019-06-08T19:00:18.106Z,25.56
2019-06-08T19:02:50.011Z,25.54
2019-06-08T19:05:18.196Z,25.54
2019-06-08T19:07:51.592Z,25.54
2019-06-08T19:10:30.628Z,25.59
2019-06-08T19:12:59.353Z,25.69
2019-06-08T19:15:39.880Z,25.97
2019-06-08T19:18:08.060Z,26.37
2019-06-08T19:20:40.663Z,26.37
2019-06-08T19:23:08.991Z,26.39
2019-06-08T19:25:42.149Z,26.51
2019-06-08T19:28:08.504Z,26.54
2019-06-08T19:30:39.400Z,26.54
2019-06-08T19:33:07.863Z,26.60
2019-06-08T19:35:37.645Z,26.60
2019-06-08T19:38:08.780Z,26.62
2019-06-08T19:40:41.000Z,26.77
2019-06-08T19:43:11.046Z,26.77
2019-06-08T19:45:41.873Z,26.85
2019-06-08T19:48:10.287Z,26.78
2019-06-08T19:50:40.136Z,26.81
2019-06-08T19:53:09.653Z,26.80
2019-06-08T19:55:39.467Z,26.75
2019-06-08T19:58:08.981Z,26.70
2019-06-08T20:00:39.250Z,26.68
2019-06-08T20:03:08.360Z,26.62
2019-06-08T20:05:37.810Z,26.57
2019-06-08T20:08:08.070Z,26.51
2019-06-08T20:10:37.090Z,26.41
2019-06-08T20:13:07.722Z,26.31
2019-06-08T20:15:43.365Z,26.18
2019-06-08T20:18:06.837Z,26.02
2019-06-08T20:20:38.014Z,25.87
2019-06-08T20:23:09.522Z,25.75
2019-06-08T20:25:38.159Z,25.65
2019-06-08T20:28:07.981Z,25.52
2019-06-08T20:30:36.948Z,25.45
2019-06-08T20:33:08.016Z,25.46
2019-06-08T20:35:37.634Z,25.42
2019-06-08T20:38:08.242Z,25.39
2019-06-08T20:40:38.342Z,25.39
2019-06-08T20:43:07.252Z,25.43
2019-06-08T20:45:37.669Z,25.52
2019-06-08T20:48:08.794Z,25.57
2019-06-08T20:50:37.918Z,25.58
2019-06-08T20:53:08.462Z,25.60
2019-06-08T20:55:40.738Z,25.61
2019-06-08T20:58:09.447Z,25.73
2019-06-08T21:00:38.339Z,25.75
2019-06-08T21:03:08.199Z,25.78
2019-06-08T21:05:37.311Z,25.81
2019-06-08T21:08:08.355Z,25.82
2019-06-08T21:10:37.763Z,25.89
2019-06-08T21:13:07.381Z,25.88
2019-06-08T21:15:38.181Z,26.02
2019-06-08T21:18:07.874Z,25.93
2019-06-08T21:20:37.816Z,25.70
2019-06-08T21:23:08.152Z,25.38
2019-06-08T21:25:37.296Z,25.11
2019-06-08T21:28:07.814Z,24.91
2019-06-08T21:30:37.779Z,24.87
2019-06-08T21:33:08.213Z,24.83
2019-06-08T21:35:37.192Z,24.75
2019-06-08T21:38:20.357Z,24.63
2019-06-08T21:40:37.606Z,24.48
2019-06-08T21:43:08.168Z,24.50
2019-06-08T21:45:38.095Z,24.39
2019-06-08T21:48:11.511Z,24.31
2019-06-08T21:50:40.233Z,24.22
2019-06-08T21:53:09.097Z,24.17
2019-06-08T21:55:38.239Z,24.17
2019-06-08T21:58:08.796Z,24.08
2019-06-08T22:00:43.247Z,23.94
2019-06-08T22:03:09.667Z,23.85
2019-06-08T22:05:38.473Z,23.88
2019-06-08T22:08:08.003Z,23.73
2019-06-08T22:10:38.554Z,23.56
2019-06-08T22:13:08.629Z,23.56
2019-06-08T22:15:39.509Z,23.43
2019-06-08T22:18:08.403Z,23.33
2019-06-08T22:20:38.661Z,23.26
2019-06-08T22:23:07.477Z,23.19
2019-06-08T22:25:38.536Z,23.04
2019-06-08T22:28:07.261Z,22.93
2019-06-08T22:30:42.538Z,22.76
2019-06-08T22:33:06.666Z,22.76
2019-06-08T22:35:37.295Z,22.72
2019-06-08T22:38:08.383Z,22.86
2019-06-08T22:40:37.108Z,22.89
2019-06-08T22:43:07.982Z,22.95
2019-06-08T22:45:37.471Z,22.99
2019-06-08T22:48:08.247Z,23.08
2019-06-08T22:50:38.230Z,23.13
2019-06-08T22:53:07.990Z,23.24
2019-06-08T22:55:38.169Z,23.47
2019-06-08T22:58:07.703Z,23.54
2019-06-08T23:00:51.261Z,23.58
2019-06-08T23:03:08.509Z,23.55
2019-06-08T23:05:37.661Z,23.44
2019-06-08T23:08:09.359Z,23.38
2019-06-08T23:10:37.493Z,23.31
2019-06-08T23:13:08.559Z,23.17
2019-06-08T23:15:36.882Z,23.05
2019-06-08T23:18:06.644Z,22.99
2019-06-08T23:20:37.145Z,22.96
2019-06-08T23:23:08.685Z,22.94
2019-06-08T23:25:37.301Z,22.93
2019-06-08T23:28:09.663Z,23.03
2019-06-08T23:30:38.230Z,23.06
2019-06-08T23:33:11.365Z,23.08
2019-06-08T23:36:02.865Z,23.00
2019-06-08T23:38:09.486Z,23.00
2019-06-08T23:40:38.386Z,22.96
2019-06-08T23:43:08.270Z,22.87
2019-06-08T23:45:37.958Z,22.80
2019-06-08T23:48:06.976Z,22.67
2019-06-08T23:50:37.798Z,22.53
2019-06-08T23:53:09.107Z,22.58
2019-06-08T23:55:37.252Z,22.52
2019-06-08T23:58:09.568Z,22.39
